Terminal Aerodrome Forecast
Issued by NWS

Home | Current Version | Previous Version | Graphics & Text | Print | Product List | Glossary On
Versions: 1 2 3 4 5 6 7 8 9 10 11 12
000
FTUS45 KGGW 251700
TAFSDY
TAF
KSDY 251721Z 2518/2618 32011KT P6SM VCSH BKN019 OVC035
      TEMPO 2518/2521 6SM -SHRA BKN015
     FM252100 30011KT P6SM SCT030 BKN060
     FM260000 VRB03KT P6SM SCT060
     FM260900 00000KT 1SM BR SCT001
     FM261600 VRB05KT P6SM FEW010
      AMD LTD TO CLD VIS AND WIND=

USA.gov is the U.S. government's official web portal to all federal, state and local government web resources and services.